sensor_id;sensor_type;location;lat;lon;timestamp;temperature;humidity
57108;DHT22;42987;52.916;6.542;2023-02-11T00:00:23;6.80;99.90
57108;DHT22;42987;52.916;6.542;2023-02-11T00:02:48;6.80;99.90
57108;DHT22;42987;52.916;6.542;2023-02-11T00:05:14;6.90;99.90
57108;DHT22;42987;52.916;6.542;2023-02-11T00:07:40;6.90;99.90
57108;DHT22;42987;52.916;6.542;2023-02-11T00:10:06;6.90;99.90
57108;DHT22;42987;52.916;6.542;2023-02-11T00:12:34;6.90;99.90
57108;DHT22;42987;52.916;6.542;2023-02-11T00:15:00;6.90;99.90
57108;DHT22;42987;52.916;6.542;2023-02-11T00:17:26;6.90;99.90
57108;DHT22;42987;52.916;6.542;2023-02-11T00:19:52;6.90;99.90
57108;DHT22;42987;52.916;6.542;2023-02-11T00:22:18;6.90;99.90
57108;DHT22;42987;52.916;6.542;2023-02-11T00:24:44;7.00;99.90
57108;DHT22;42987;52.916;6.542;2023-02-11T00:27:10;7.00;99.90
57108;DHT22;42987;52.916;6.542;2023-02-11T00:29:37;7.00;99.90
57108;DHT22;42987;52.916;6.542;2023-02-11T00:32:03;6.90;99.90
57108;DHT22;42987;52.916;6.542;2023-02-11T00:34:34;6.90;99.90
57108;DHT22;42987;52.916;6.542;2023-02-11T00:37:00;6.90;99.90
57108;DHT22;42987;52.916;6.542;2023-02-11T00:39:25;6.90;99.90
57108;DHT22;42987;52.916;6.542;2023-02-11T00:41:51;6.90;99.90
57108;DHT22;42987;52.916;6.542;2023-02-11T00:44:17;6.80;99.90
57108;DHT22;42987;52.916;6.542;2023-02-11T00:46:43;6.80;99.90
57108;DHT22;42987;52.916;6.542;2023-02-11T00:49:09;6.80;99.90
57108;DHT22;42987;52.916;6.542;2023-02-11T00:51:35;6.80;99.90
57108;DHT22;42987;52.916;6.542;2023-02-11T00:54:00;6.70;99.90
57108;DHT22;42987;52.916;6.542;2023-02-11T00:56:26;6.80;99.90
57108;DHT22;42987;52.916;6.542;2023-02-11T00:58:52;6.80;99.90
57108;DHT22;42987;52.916;6.542;2023-02-11T01:01:18;6.70;99.90
57108;DHT22;42987;52.916;6.542;2023-02-11T01:03:44;6.70;99.90
57108;DHT22;42987;52.916;6.542;2023-02-11T01:06:10;6.70;99.90
57108;DHT22;42987;52.916;6.542;2023-02-11T01:08:37;6.70;99.90
57108;DHT22;42987;52.916;6.542;2023-02-11T01:11:14;6.60;99.90
57108;DHT22;42987;52.916;6.542;2023-02-11T01:13:40;6.70;99.90
57108;DHT22;42987;52.916;6.542;2023-02-11T01:16:07;6.50;99.90
57108;DHT22;42987;52.916;6.542;2023-02-11T01:18:34;6.50;99.90
57108;DHT22;42987;52.916;6.542;2023-02-11T01:21:00;6.40;99.90
57108;DHT22;42987;52.916;6.542;2023-02-11T01:23:26;6.30;99.90
57108;DHT22;42987;52.916;6.542;2023-02-11T01:25:52;6.30;99.90
57108;DHT22;42987;52.916;6.542;2023-02-11T01:28:21;6.30;99.90
57108;DHT22;42987;52.916;6.542;2023-02-11T01:30:48;6.30;99.90
57108;DHT22;42987;52.916;6.542;2023-02-11T01:33:14;6.20;99.90
57108;DHT22;42987;52.916;6.542;2023-02-11T01:35:40;6.20;99.90
57108;DHT22;42987;52.916;6.542;2023-02-11T01:38:07;6.20;99.90
57108;DHT22;42987;52.916;6.542;2023-02-11T01:40:38;6.20;99.90
57108;DHT22;42987;52.916;6.542;2023-02-11T01:43:04;6.20;99.90
57108;DHT22;42987;52.916;6.542;2023-02-11T01:48:38;6.30;99.90
57108;DHT22;42987;52.916;6.542;2023-02-11T01:51:28;6.20;99.90
57108;DHT22;42987;52.916;6.542;2023-02-11T01:53:59;6.20;99.90
57108;DHT22;42987;52.916;6.542;2023-02-11T01:56:47;6.20;99.90
57108;DHT22;42987;52.916;6.542;2023-02-11T01:59:40;6.20;99.90
57108;DHT22;42987;52.916;6.542;2023-02-11T02:02:11;6.20;99.90
57108;DHT22;42987;52.916;6.542;2023-02-11T02:04:43;6.20;99.90
57108;DHT22;42987;52.916;6.542;2023-02-11T02:07:16;6.20;99.90
57108;DHT22;42987;52.916;6.542;2023-02-11T02:09:47;6.20;99.90
57108;DHT22;42987;52.916;6.542;2023-02-11T02:12:14;6.30;99.90
57108;DHT22;42987;52.916;6.542;2023-02-11T02:14:41;6.30;99.90
57108;DHT22;42987;52.916;6.542;2023-02-11T02:17:11;6.20;99.90
57108;DHT22;42987;52.916;6.542;2023-02-11T02:31:15;6.20;99.90
57108;DHT22;42987;52.916;6.542;2023-02-11T02:33:55;6.20;99.90
57108;DHT22;42987;52.916;6.542;2023-02-11T02:36:37;6.30;99.90
57108;DHT22;42987;52.916;6.542;2023-02-11T02:39:19;6.30;99.90
57108;DHT22;42987;52.916;6.542;2023-02-11T02:41:48;6.30;99.90
57108;DHT22;42987;52.916;6.542;2023-02-11T02:44:17;6.30;99.90
57108;DHT22;42987;52.916;6.542;2023-02-11T02:46:43;6.30;99.90
57108;DHT22;42987;52.916;6.542;2023-02-11T02:49:13;6.30;99.90
57108;DHT22;42987;52.916;6.542;2023-02-11T02:51:52;6.30;99.90
57108;DHT22;42987;52.916;6.542;2023-02-11T03:02:41;6.60;99.90
57108;DHT22;42987;52.916;6.542;2023-02-11T03:05:33;6.60;99.90
57108;DHT22;42987;52.916;6.542;2023-02-11T03:10:44;6.80;99.90
57108;DHT22;42987;52.916;6.542;2023-02-11T03:13:12;6.80;99.90
57108;DHT22;42987;52.916;6.542;2023-02-11T03:15:43;6.80;99.90
57108;DHT22;42987;52.916;6.542;2023-02-11T03:18:13;6.80;99.90
57108;DHT22;42987;52.916;6.542;2023-02-11T03:20:42;6.80;99.90
57108;DHT22;42987;52.916;6.542;2023-02-11T03:23:28;6.90;99.90
57108;DHT22;42987;52.916;6.542;2023-02-11T03:31:30;6.90;99.90
57108;DHT22;42987;52.916;6.542;2023-02-11T03:34:13;6.80;99.90
57108;DHT22;42987;52.916;6.542;2023-02-11T03:39:38;6.90;99.90
57108;DHT22;42987;52.916;6.542;2023-02-11T03:42:06;6.90;99.90
57108;DHT22;42987;52.916;6.542;2023-02-11T03:44:40;6.90;99.90
57108;DHT22;42987;52.916;6.542;2023-02-11T03:47:09;7.00;99.90
57108;DHT22;42987;52.916;6.542;2023-02-11T03:49:38;7.00;99.90
57108;DHT22;42987;52.916;6.542;2023-02-11T03:52:06;7.10;99.90
57108;DHT22;42987;52.916;6.542;2023-02-11T03:54:33;7.10;99.90
57108;DHT22;42987;52.916;6.542;2023-02-11T03:57:00;7.30;99.90
57108;DHT22;42987;52.916;6.542;2023-02-11T03:59:27;7.20;99.90
57108;DHT22;42987;52.916;6.542;2023-02-11T04:01:54;7.30;99.90
57108;DHT22;42987;52.916;6.542;2023-02-11T04:04:20;7.30;99.90
57108;DHT22;42987;52.916;6.542;2023-02-11T04:06:45;7.30;99.90
57108;DHT22;42987;52.916;6.542;2023-02-11T04:09:11;7.30;99.90
57108;DHT22;42987;52.916;6.542;2023-02-11T04:11:37;7.30;99.90
57108;DHT22;42987;52.916;6.542;2023-02-11T04:14:03;7.30;99.90
57108;DHT22;42987;52.916;6.542;2023-02-11T04:16:29;7.30;99.90
57108;DHT22;42987;52.916;6.542;2023-02-11T04:18:56;7.40;99.90
57108;DHT22;42987;52.916;6.542;2023-02-11T04:21:22;7.40;99.90
57108;DHT22;42987;52.916;6.542;2023-02-11T04:23:47;7.40;99.90
57108;DHT22;42987;52.916;6.542;2023-02-11T04:26:13;7.30;99.90
57108;DHT22;42987;52.916;6.542;2023-02-11T04:28:39;7.30;99.90
57108;DHT22;42987;52.916;6.542;2023-02-11T04:31:05;7.30;99.90
57108;DHT22;42987;52.916;6.542;2023-02-11T04:33:31;7.30;99.90
57108;DHT22;42987;52.916;6.542;2023-02-11T04:35:57;7.30;99.90
57108;DHT22;42987;52.916;6.542;2023-02-11T04:38:22;7.30;99.90
57108;DHT22;42987;52.916;6.542;2023-02-11T04:40:49;7.30;99.90
57108;DHT22;42987;52.916;6.542;2023-02-11T04:43:17;7.30;99.90
57108;DHT22;42987;52.916;6.542;2023-02-11T04:45:43;7.30;99.90
57108;DHT22;42987;52.916;6.542;2023-02-11T04:48:09;7.30;99.90
57108;DHT22;42987;52.916;6.542;2023-02-11T04:50:35;7.40;99.90
57108;DHT22;42987;52.916;6.542;2023-02-11T04:53:00;7.30;99.90
57108;DHT22;42987;52.916;6.542;2023-02-11T04:55:26;7.30;99.90
57108;DHT22;42987;52.916;6.542;2023-02-11T04:57:52;7.30;99.90
57108;DHT22;42987;52.916;6.542;2023-02-11T05:00:23;7.20;99.90
57108;DHT22;42987;52.916;6.542;2023-02-11T05:02:49;7.20;99.90
57108;DHT22;42987;52.916;6.542;2023-02-11T05:05:18;7.20;99.90
57108;DHT22;42987;52.916;6.542;2023-02-11T05:07:47;7.10;99.90
57108;DHT22;42987;52.916;6.542;2023-02-11T05:10:13;7.10;99.90
57108;DHT22;42987;52.916;6.542;2023-02-11T05:12:39;7.10;99.90
57108;DHT22;42987;52.916;6.542;2023-02-11T05:15:05;7.00;99.90
57108;DHT22;42987;52.916;6.542;2023-02-11T05:17:31;7.00;99.90
57108;DHT22;42987;52.916;6.542;2023-02-11T05:19:56;7.00;99.90
57108;DHT22;42987;52.916;6.542;2023-02-11T05:22:22;6.90;99.90
57108;DHT22;42987;52.916;6.542;2023-02-11T05:24:48;6.90;99.90
57108;DHT22;42987;52.916;6.542;2023-02-11T05:27:14;6.90;99.90
57108;DHT22;42987;52.916;6.542;2023-02-11T05:29:40;6.90;99.90
57108;DHT22;42987;52.916;6.542;2023-02-11T05:32:05;6.90;99.90
57108;DHT22;42987;52.916;6.542;2023-02-11T05:34:34;6.90;99.90
57108;DHT22;42987;52.916;6.542;2023-02-11T05:37:00;6.90;99.90
57108;DHT22;42987;52.916;6.542;2023-02-11T05:39:26;6.90;99.90
57108;DHT22;42987;52.916;6.542;2023-02-11T05:41:51;6.80;99.90
57108;DHT22;42987;52.916;6.542;2023-02-11T05:44:17;6.80;99.90
57108;DHT22;42987;52.916;6.542;2023-02-11T05:46:49;6.80;99.90
57108;DHT22;42987;52.916;6.542;2023-02-11T05:49:16;6.80;99.90
57108;DHT22;42987;52.916;6.542;2023-02-11T05:51:42;6.80;99.90
57108;DHT22;42987;52.916;6.542;2023-02-11T05:54:11;6.80;99.90
57108;DHT22;42987;52.916;6.542;2023-02-11T05:56:37;6.70;99.90
57108;DHT22;42987;52.916;6.542;2023-02-11T05:59:02;6.70;99.90
57108;DHT22;42987;52.916;6.542;2023-02-11T06:01:30;6.70;99.90
57108;DHT22;42987;52.916;6.542;2023-02-11T06:03:59;6.70;99.90
57108;DHT22;42987;52.916;6.542;2023-02-11T06:06:28;6.70;99.90
57108;DHT22;42987;52.916;6.542;2023-02-11T06:08:57;6.70;99.90
57108;DHT22;42987;52.916;6.542;2023-02-11T06:11:22;6.60;99.90
57108;DHT22;42987;52.916;6.542;2023-02-11T06:13:48;6.60;99.90
57108;DHT22;42987;52.916;6.542;2023-02-11T06:16:14;6.60;99.90
57108;DHT22;42987;52.916;6.542;2023-02-11T06:18:40;6.60;99.90
57108;DHT22;42987;52.916;6.542;2023-02-11T06:21:07;6.60;99.90
57108;DHT22;42987;52.916;6.542;2023-02-11T06:23:34;6.50;99.90
57108;DHT22;42987;52.916;6.542;2023-02-11T06:26:07;6.60;99.90
57108;DHT22;42987;52.916;6.542;2023-02-11T06:28:33;6.60;99.90
57108;DHT22;42987;52.916;6.542;2023-02-11T06:31:05;6.60;99.90
57108;DHT22;42987;52.916;6.542;2023-02-11T06:33:31;6.60;99.90
57108;DHT22;42987;52.916;6.542;2023-02-11T06:35:57;6.60;99.90
57108;DHT22;42987;52.916;6.542;2023-02-11T06:38:23;6.60;99.90
57108;DHT22;42987;52.916;6.542;2023-02-11T06:40:49;6.60;99.90
57108;DHT22;42987;52.916;6.542;2023-02-11T06:43:15;6.60;99.90
57108;DHT22;42987;52.916;6.542;2023-02-11T06:45:41;6.60;99.90
57108;DHT22;42987;52.916;6.542;2023-02-11T06:48:08;6.60;99.90
57108;DHT22;42987;52.916;6.542;2023-02-11T06:50:33;6.60;99.90
57108;DHT22;42987;52.916;6.542;2023-02-11T06:53:00;6.70;99.90
57108;DHT22;42987;52.916;6.542;2023-02-11T06:55:26;6.60;99.90
57108;DHT22;42987;52.916;6.542;2023-02-11T06:57:52;6.70;99.90
57108;DHT22;42987;52.916;6.542;2023-02-11T07:00:18;6.70;99.90
57108;DHT22;42987;52.916;6.542;2023-02-11T07:02:44;6.70;99.90
57108;DHT22;42987;52.916;6.542;2023-02-11T07:05:10;6.70;99.90
57108;DHT22;42987;52.916;6.542;2023-02-11T07:07:36;6.70;99.90
57108;DHT22;42987;52.916;6.542;2023-02-11T07:10:02;6.70;99.90
57108;DHT22;42987;52.916;6.542;2023-02-11T07:12:29;6.70;99.90
57108;DHT22;42987;52.916;6.542;2023-02-11T07:14:56;6.70;99.90
57108;DHT22;42987;52.916;6.542;2023-02-11T07:17:22;6.70;99.90
57108;DHT22;42987;52.916;6.542;2023-02-11T07:19:47;6.80;99.90
57108;DHT22;42987;52.916;6.542;2023-02-11T07:22:13;6.70;99.90
57108;DHT22;42987;52.916;6.542;2023-02-11T07:24:40;6.80;99.90
57108;DHT22;42987;52.916;6.542;2023-02-11T07:27:06;6.80;99.90
57108;DHT22;42987;52.916;6.542;2023-02-11T07:29:31;6.80;99.90
57108;DHT22;42987;52.916;6.542;2023-02-11T07:31:58;6.80;99.90
57108;DHT22;42987;52.916;6.542;2023-02-11T07:34:23;6.90;99.90
57108;DHT22;42987;52.916;6.542;2023-02-11T07:36:55;6.90;99.90
57108;DHT22;42987;52.916;6.542;2023-02-11T07:39:21;7.00;99.90
57108;DHT22;42987;52.916;6.542;2023-02-11T07:41:47;7.00;99.90
57108;DHT22;42987;52.916;6.542;2023-02-11T07:44:14;7.00;99.90
57108;DHT22;42987;52.916;6.542;2023-02-11T07:46:40;7.00;99.90
57108;DHT22;42987;52.916;6.542;2023-02-11T07:49:09;7.10;99.90
57108;DHT22;42987;52.916;6.542;2023-02-11T07:51:35;7.00;99.90
57108;DHT22;42987;52.916;6.542;2023-02-11T07:54:01;7.10;99.90
57108;DHT22;42987;52.916;6.542;2023-02-11T07:56:28;7.10;99.90
57108;DHT22;42987;52.916;6.542;2023-02-11T07:58:55;7.10;99.90
57108;DHT22;42987;52.916;6.542;2023-02-11T08:01:24;7.20;99.90
57108;DHT22;42987;52.916;6.542;2023-02-11T08:03:53;7.10;99.90
57108;DHT22;42987;52.916;6.542;2023-02-11T08:06:21;7.10;99.90
57108;DHT22;42987;52.916;6.542;2023-02-11T08:08:48;7.10;99.90
57108;DHT22;42987;52.916;6.542;2023-02-11T08:11:16;7.20;99.90
57108;DHT22;42987;52.916;6.542;2023-02-11T08:13:42;7.10;99.90
57108;DHT22;42987;52.916;6.542;2023-02-11T08:16:08;7.20;99.90
57108;DHT22;42987;52.916;6.542;2023-02-11T08:18:41;7.20;99.90
57108;DHT22;42987;52.916;6.542;2023-02-11T08:21:08;7.20;99.90
57108;DHT22;42987;52.916;6.542;2023-02-11T08:23:36;7.20;99.90
57108;DHT22;42987;52.916;6.542;2023-02-11T08:26:07;7.30;99.90
57108;DHT22;42987;52.916;6.542;2023-02-11T08:28:38;7.30;99.90
57108;DHT22;42987;52.916;6.542;2023-02-11T08:31:13;7.30;99.90
57108;DHT22;42987;52.916;6.542;2023-02-11T08:33:39;7.30;99.90
57108;DHT22;42987;52.916;6.542;2023-02-11T08:36:15;7.40;99.90
57108;DHT22;42987;52.916;6.542;2023-02-11T08:38:42;7.30;99.90
57108;DHT22;42987;52.916;6.542;2023-02-11T08:41:08;7.40;99.90
57108;DHT22;42987;52.916;6.542;2023-02-11T08:43:35;7.40;99.90
57108;DHT22;42987;52.916;6.542;2023-02-11T08:46:01;7.40;99.90
57108;DHT22;42987;52.916;6.542;2023-02-11T08:48:27;7.40;99.90
57108;DHT22;42987;52.916;6.542;2023-02-11T08:50:56;7.40;99.90
57108;DHT22;42987;52.916;6.542;2023-02-11T08:53:21;7.40;99.90
57108;DHT22;42987;52.916;6.542;2023-02-11T08:55:52;7.50;99.90
57108;DHT22;42987;52.916;6.542;2023-02-11T08:58:20;7.50;99.90
57108;DHT22;42987;52.916;6.542;2023-02-11T09:00:47;7.50;99.90
57108;DHT22;42987;52.916;6.542;2023-02-11T09:03:14;7.50;99.90
57108;DHT22;42987;52.916;6.542;2023-02-11T09:05:41;7.60;99.90
57108;DHT22;42987;52.916;6.542;2023-02-11T09:08:07;7.60;99.90
57108;DHT22;42987;52.916;6.542;2023-02-11T09:10:33;7.70;99.90
57108;DHT22;42987;52.916;6.542;2023-02-11T09:12:59;7.70;99.90
57108;DHT22;42987;52.916;6.542;2023-02-11T09:15:25;7.80;99.90
57108;DHT22;42987;52.916;6.542;2023-02-11T09:17:51;7.80;99.90
57108;DHT22;42987;52.916;6.542;2023-02-11T09:20:17;7.90;99.90
57108;DHT22;42987;52.916;6.542;2023-02-11T09:22:43;7.90;99.90
57108;DHT22;42987;52.916;6.542;2023-02-11T09:25:09;7.90;99.90
57108;DHT22;42987;52.916;6.542;2023-02-11T09:27:35;8.00;99.90
57108;DHT22;42987;52.916;6.542;2023-02-11T09:30:01;8.00;99.90
57108;DHT22;42987;52.916;6.542;2023-02-11T09:32:27;8.10;99.90
57108;DHT22;42987;52.916;6.542;2023-02-11T09:34:53;8.10;99.90
57108;DHT22;42987;52.916;6.542;2023-02-11T09:37:18;8.20;99.90
57108;DHT22;42987;52.916;6.542;2023-02-11T09:39:44;8.20;99.90
57108;DHT22;42987;52.916;6.542;2023-02-11T09:44:58;8.30;99.90
57108;DHT22;42987;52.916;6.542;2023-02-11T09:47:35;8.40;99.90
57108;DHT22;42987;52.916;6.542;2023-02-11T09:50:06;8.50;99.90
57108;DHT22;42987;52.916;6.542;2023-02-11T09:52:42;8.50;99.90
57108;DHT22;42987;52.916;6.542;2023-02-11T09:55:16;8.60;99.90
57108;DHT22;42987;52.916;6.542;2023-02-11T09:57:43;8.60;99.90
57108;DHT22;42987;52.916;6.542;2023-02-11T10:00:39;8.70;99.90
57108;DHT22;42987;52.916;6.542;2023-02-11T10:11:12;8.80;99.90
57108;DHT22;42987;52.916;6.542;2023-02-11T10:22:05;9.10;99.90
57108;DHT22;42987;52.916;6.542;2023-02-11T10:24:34;9.10;99.90
57108;DHT22;42987;52.916;6.542;2023-02-11T10:27:05;9.20;99.90
57108;DHT22;42987;52.916;6.542;2023-02-11T10:29:37;9.20;99.90
57108;DHT22;42987;52.916;6.542;2023-02-11T10:34:46;9.30;99.90
57108;DHT22;42987;52.916;6.542;2023-02-11T10:37:12;9.40;99.90
57108;DHT22;42987;52.916;6.542;2023-02-11T10:39:39;9.40;99.90
57108;DHT22;42987;52.916;6.542;2023-02-11T10:42:09;9.40;99.90
57108;DHT22;42987;52.916;6.542;2023-02-11T10:44:52;9.40;99.90
57108;DHT22;42987;52.916;6.542;2023-02-11T10:47:28;9.40;99.90
57108;DHT22;42987;52.916;6.542;2023-02-11T10:49:58;9.40;99.90
57108;DHT22;42987;52.916;6.542;2023-02-11T10:52:29;9.40;99.90
57108;DHT22;42987;52.916;6.542;2023-02-11T10:57:53;9.40;99.90
57108;DHT22;42987;52.916;6.542;2023-02-11T11:00:33;9.50;99.90
57108;DHT22;42987;52.916;6.542;2023-02-11T11:03:24;9.50;99.90
57108;DHT22;42987;52.916;6.542;2023-02-11T11:05:52;9.50;99.90
57108;DHT22;42987;52.916;6.542;2023-02-11T11:08:19;9.50;99.90
57108;DHT22;42987;52.916;6.542;2023-02-11T11:11:02;9.50;99.90
57108;DHT22;42987;52.916;6.542;2023-02-11T11:13:31;9.50;99.90
57108;DHT22;42987;52.916;6.542;2023-02-11T11:16:18;9.50;99.90
57108;DHT22;42987;52.916;6.542;2023-02-11T11:18:46;9.60;99.90
57108;DHT22;42987;52.916;6.542;2023-02-11T11:21:35;9.60;99.90
57108;DHT22;42987;52.916;6.542;2023-02-11T11:24:05;9.60;99.90
57108;DHT22;42987;52.916;6.542;2023-02-11T11:26:50;9.60;99.90
57108;DHT22;42987;52.916;6.542;2023-02-11T11:29:34;9.60;99.90
57108;DHT22;42987;52.916;6.542;2023-02-11T11:32:15;9.60;99.90
57108;DHT22;42987;52.916;6.542;2023-02-11T11:34:49;9.60;99.90
57108;DHT22;42987;52.916;6.542;2023-02-11T11:37:35;9.70;99.90
57108;DHT22;42987;52.916;6.542;2023-02-11T11:40:23;9.70;99.90
57108;DHT22;42987;52.916;6.542;2023-02-11T11:45:32;9.70;99.90
57108;DHT22;42987;52.916;6.542;2023-02-11T11:56:14;9.80;99.90
57108;DHT22;42987;52.916;6.542;2023-02-11T11:58:41;9.80;99.90
57108;DHT22;42987;52.916;6.542;2023-02-11T12:01:44;9.80;99.90
57108;DHT22;42987;52.916;6.542;2023-02-11T12:06:56;9.70;99.90
57108;DHT22;42987;52.916;6.542;2023-02-11T12:09:52;9.80;99.90
57108;DHT22;42987;52.916;6.542;2023-02-11T12:18:04;9.80;99.90
57108;DHT22;42987;52.916;6.542;2023-02-11T12:26:19;9.90;99.90
57108;DHT22;42987;52.916;6.542;2023-02-11T12:31:53;10.00;99.90
57108;DHT22;42987;52.916;6.542;2023-02-11T12:50:29;10.10;99.90
57108;DHT22;42987;52.916;6.542;2023-02-11T12:55:53;10.10;99.90
57108;DHT22;42987;52.916;6.542;2023-02-11T12:58:23;10.10;99.90
57108;DHT22;42987;52.916;6.542;2023-02-11T13:01:02;10.10;99.90
57108;DHT22;42987;52.916;6.542;2023-02-11T13:03:37;10.10;99.90
57108;DHT22;42987;52.916;6.542;2023-02-11T13:06:08;10.00;99.90
57108;DHT22;42987;52.916;6.542;2023-02-11T13:08:49;10.10;99.90
57108;DHT22;42987;52.916;6.542;2023-02-11T13:13:50;10.10;99.90
57108;DHT22;42987;52.916;6.542;2023-02-11T13:19:05;10.10;99.90
57108;DHT22;42987;52.916;6.542;2023-02-11T13:21:59;10.20;99.90
57108;DHT22;42987;52.916;6.542;2023-02-11T13:24:46;10.20;99.90
57108;DHT22;42987;52.916;6.542;2023-02-11T13:30:40;10.30;99.90
57108;DHT22;42987;52.916;6.542;2023-02-11T13:35:47;10.30;99.90
57108;DHT22;42987;52.916;6.542;2023-02-11T13:38:22;10.30;99.90
57108;DHT22;42987;52.916;6.542;2023-02-11T13:43:33;10.30;99.90
57108;DHT22;42987;52.916;6.542;2023-02-11T13:46:03;10.30;99.90
57108;DHT22;42987;52.916;6.542;2023-02-11T13:48:50;10.30;99.90
57108;DHT22;42987;52.916;6.542;2023-02-11T13:51:36;10.40;99.90
57108;DHT22;42987;52.916;6.542;2023-02-11T13:54:06;10.40;99.90
57108;DHT22;42987;52.916;6.542;2023-02-11T13:56:39;10.40;99.90
57108;DHT22;42987;52.916;6.542;2023-02-11T14:02:04;10.50;99.90
57108;DHT22;42987;52.916;6.542;2023-02-11T14:11:02;10.50;99.90
57108;DHT22;42987;52.916;6.542;2023-02-11T14:19:33;10.60;99.90
57108;DHT22;42987;52.916;6.542;2023-02-11T14:22:04;10.60;99.90
57108;DHT22;42987;52.916;6.542;2023-02-11T14:27:19;10.50;99.90
57108;DHT22;42987;52.916;6.542;2023-02-11T14:30:19;10.40;99.90
57108;DHT22;42987;52.916;6.542;2023-02-11T14:38:40;10.30;99.90
57108;DHT22;42987;52.916;6.542;2023-02-11T14:41:23;10.30;99.90
57108;DHT22;42987;52.916;6.542;2023-02-11T14:44:03;10.30;99.90
57108;DHT22;42987;52.916;6.542;2023-02-11T14:46:34;10.20;99.90
57108;DHT22;42987;52.916;6.542;2023-02-11T14:49:01;10.20;99.90
57108;DHT22;42987;52.916;6.542;2023-02-11T14:51:30;10.30;99.90
57108;DHT22;42987;52.916;6.542;2023-02-11T14:54:04;10.30;99.90
57108;DHT22;42987;52.916;6.542;2023-02-11T14:56:35;10.30;99.90
57108;DHT22;42987;52.916;6.542;2023-02-11T14:59:01;10.30;99.90
57108;DHT22;42987;52.916;6.542;2023-02-11T15:01:33;10.20;99.90
57108;DHT22;42987;52.916;6.542;2023-02-11T15:04:04;10.30;99.90
57108;DHT22;42987;52.916;6.542;2023-02-11T15:06:32;10.20;99.90
57108;DHT22;42987;52.916;6.542;2023-02-11T15:11:33;10.20;99.90
57108;DHT22;42987;52.916;6.542;2023-02-11T15:14:08;10.10;99.90
57108;DHT22;42987;52.916;6.542;2023-02-11T15:16:39;10.10;99.90
57108;DHT22;42987;52.916;6.542;2023-02-11T15:19:06;10.10;99.90
57108;DHT22;42987;52.916;6.542;2023-02-11T15:21:44;10.10;99.90
57108;DHT22;42987;52.916;6.542;2023-02-11T15:24:29;10.10;99.90
57108;DHT22;42987;52.916;6.542;2023-02-11T15:29:40;10.10;99.90
57108;DHT22;42987;52.916;6.542;2023-02-11T15:32:13;10.00;99.90
57108;DHT22;42987;52.916;6.542;2023-02-11T15:34:40;10.00;99.90
57108;DHT22;42987;52.916;6.542;2023-02-11T15:37:13;9.90;99.90
57108;DHT22;42987;52.916;6.542;2023-02-11T15:39:40;10.00;99.90
57108;DHT22;42987;52.916;6.542;2023-02-11T15:42:25;9.90;99.90
57108;DHT22;42987;52.916;6.542;2023-02-11T15:47:53;9.90;99.90
57108;DHT22;42987;52.916;6.542;2023-02-11T15:50:23;9.80;99.90
57108;DHT22;42987;52.916;6.542;2023-02-11T15:52:51;9.80;99.90
57108;DHT22;42987;52.916;6.542;2023-02-11T15:55:18;9.80;99.90
57108;DHT22;42987;52.916;6.542;2023-02-11T15:57:59;9.70;99.90
57108;DHT22;42987;52.916;6.542;2023-02-11T16:00:32;9.70;99.90
57108;DHT22;42987;52.916;6.542;2023-02-11T16:03:00;9.70;99.90
57108;DHT22;42987;52.916;6.542;2023-02-11T16:05:35;9.70;99.90
57108;DHT22;42987;52.916;6.542;2023-02-11T16:08:31;9.60;99.90
57108;DHT22;42987;52.916;6.542;2023-02-11T16:11:00;9.60;99.90
57108;DHT22;42987;52.916;6.542;2023-02-11T16:13:28;9.60;99.90
57108;DHT22;42987;52.916;6.542;2023-02-11T16:16:14;9.60;99.90
57108;DHT22;42987;52.916;6.542;2023-02-11T16:18:53;9.50;99.90
57108;DHT22;42987;52.916;6.542;2023-02-11T16:21:26;9.50;99.90
57108;DHT22;42987;52.916;6.542;2023-02-11T16:24:01;9.50;99.90
57108;DHT22;42987;52.916;6.542;2023-02-11T16:26:35;9.40;99.90
57108;DHT22;42987;52.916;6.542;2023-02-11T16:29:07;9.40;99.90
57108;DHT22;42987;52.916;6.542;2023-02-11T16:31:37;9.40;99.90
57108;DHT22;42987;52.916;6.542;2023-02-11T16:34:14;9.30;99.90
57108;DHT22;42987;52.916;6.542;2023-02-11T16:36:40;9.30;99.90
57108;DHT22;42987;52.916;6.542;2023-02-11T16:39:07;9.30;99.90
57108;DHT22;42987;52.916;6.542;2023-02-11T16:41:32;9.30;99.90
57108;DHT22;42987;52.916;6.542;2023-02-11T16:43:58;9.20;99.90
57108;DHT22;42987;52.916;6.542;2023-02-11T16:46:27;9.20;99.90
57108;DHT22;42987;52.916;6.542;2023-02-11T16:48:56;9.20;99.90
57108;DHT22;42987;52.916;6.542;2023-02-11T16:51:22;9.20;99.90
57108;DHT22;42987;52.916;6.542;2023-02-11T16:53:48;9.20;99.90
57108;DHT22;42987;52.916;6.542;2023-02-11T16:56:15;9.10;99.90
57108;DHT22;42987;52.916;6.542;2023-02-11T16:58:42;9.10;99.90
57108;DHT22;42987;52.916;6.542;2023-02-11T17:01:08;9.10;99.90
57108;DHT22;42987;52.916;6.542;2023-02-11T17:03:36;9.10;99.90
57108;DHT22;42987;52.916;6.542;2023-02-11T17:06:12;9.10;99.90
57108;DHT22;42987;52.916;6.542;2023-02-11T17:08:38;9.10;99.90
57108;DHT22;42987;52.916;6.542;2023-02-11T17:11:04;9.00;99.90
57108;DHT22;42987;52.916;6.542;2023-02-11T17:13:31;9.00;99.90
57108;DHT22;42987;52.916;6.542;2023-02-11T17:15:57;9.00;99.90
57108;DHT22;42987;52.916;6.542;2023-02-11T17:18:23;9.00;99.90
57108;DHT22;42987;52.916;6.542;2023-02-11T17:20:48;9.00;99.90
57108;DHT22;42987;52.916;6.542;2023-02-11T17:23:14;9.00;99.90
57108;DHT22;42987;52.916;6.542;2023-02-11T17:25:40;8.90;99.90
57108;DHT22;42987;52.916;6.542;2023-02-11T17:28:07;8.90;99.90
57108;DHT22;42987;52.916;6.542;2023-02-11T17:30:33;8.90;99.90
57108;DHT22;42987;52.916;6.542;2023-02-11T17:32:59;8.90;99.90
57108;DHT22;42987;52.916;6.542;2023-02-11T17:35:25;8.90;99.90
57108;DHT22;42987;52.916;6.542;2023-02-11T17:37:50;8.80;99.90
57108;DHT22;42987;52.916;6.542;2023-02-11T17:40:16;8.80;99.90
57108;DHT22;42987;52.916;6.542;2023-02-11T17:42:42;8.80;99.90
57108;DHT22;42987;52.916;6.542;2023-02-11T17:45:08;8.80;99.90
57108;DHT22;42987;52.916;6.542;2023-02-11T17:47:35;8.70;99.90
57108;DHT22;42987;52.916;6.542;2023-02-11T17:50:00;8.70;99.90
57108;DHT22;42987;52.916;6.542;2023-02-11T17:52:28;8.70;99.90
57108;DHT22;42987;52.916;6.542;2023-02-11T17:54:54;8.70;99.90
57108;DHT22;42987;52.916;6.542;2023-02-11T17:57:23;8.70;99.90
57108;DHT22;42987;52.916;6.542;2023-02-11T17:59:52;8.70;99.90
57108;DHT22;42987;52.916;6.542;2023-02-11T18:02:18;8.60;99.90
57108;DHT22;42987;52.916;6.542;2023-02-11T18:04:43;8.60;99.90
57108;DHT22;42987;52.916;6.542;2023-02-11T18:07:09;8.60;99.90
57108;DHT22;42987;52.916;6.542;2023-02-11T18:09:40;8.60;99.90
57108;DHT22;42987;52.916;6.542;2023-02-11T18:12:05;8.60;99.90
57108;DHT22;42987;52.916;6.542;2023-02-11T18:14:32;8.60;99.90
57108;DHT22;42987;52.916;6.542;2023-02-11T18:16:58;8.60;99.90
57108;DHT22;42987;52.916;6.542;2023-02-11T18:19:27;8.50;99.90
57108;DHT22;42987;52.916;6.542;2023-02-11T18:21:55;8.50;99.90
57108;DHT22;42987;52.916;6.542;2023-02-11T18:24:21;8.50;99.90
57108;DHT22;42987;52.916;6.542;2023-02-11T18:26:47;8.50;99.90
57108;DHT22;42987;52.916;6.542;2023-02-11T18:29:13;8.50;99.90
57108;DHT22;42987;52.916;6.542;2023-02-11T18:31:38;8.40;99.90